createdAt,value
2017-07-23T00:00:46.845Z,0
2017-07-23T00:01:46.204Z,0
2017-07-23T00:02:45.877Z,0
2017-07-23T00:03:46.851Z,0
2017-07-23T00:04:46.173Z,0
2017-07-23T00:05:46.175Z,0
2017-07-23T00:06:46.221Z,0
2017-07-23T00:07:46.428Z,0
2017-07-23T00:08:46.440Z,0
2017-07-23T00:09:46.713Z,0
2017-07-23T00:10:46.707Z,0
2017-07-23T00:11:46.095Z,0
2017-07-23T00:12:46.776Z,0
2017-07-23T00:13:45.812Z,0
2017-07-23T00:14:46.653Z,0
2017-07-23T00:15:46.653Z,0
2017-07-23T00:16:46.052Z,0
2017-07-23T00:17:45.996Z,0
2017-07-23T00:18:46.034Z,0
2017-07-23T00:19:46.310Z,0
2017-07-23T00:20:46.385Z,0
2017-07-23T00:21:46.243Z,0
2017-07-23T00:22:46.559Z,0
2017-07-23T00:23:46.221Z,0
2017-07-23T00:24:46.527Z,0
2017-07-23T00:25:45.579Z,0
2017-07-23T00:26:46.005Z,0
2017-07-23T00:27:45.858Z,0
2017-07-23T00:28:45.864Z,0
2017-07-23T00:29:46.142Z,0
2017-07-23T00:30:46.126Z,0
2017-07-23T00:31:46.119Z,0
2017-07-23T00:32:46.190Z,0
2017-07-23T00:33:45.791Z,0
2017-07-23T00:34:46.400Z,0
2017-07-23T00:35:46.076Z,0
2017-07-23T00:36:46.042Z,0
2017-07-23T00:37:45.725Z,0
2017-07-23T00:38:45.727Z,0
2017-07-23T00:39:45.700Z,0
2017-07-23T00:40:45.687Z,0
2017-07-23T00:41:45.969Z,0
2017-07-23T00:42:46.010Z,0
2017-07-23T00:43:45.350Z,0
2017-07-23T00:44:45.944Z,0
2017-07-23T00:45:45.323Z,0
2017-07-23T00:46:45.921Z,0
2017-07-23T00:47:46.204Z,0
2017-07-23T00:48:45.605Z,0
2017-07-23T00:49:45.957Z,0
2017-07-23T00:50:45.909Z,0
2017-07-23T00:51:45.966Z,0
2017-07-23T00:52:46.148Z,0
2017-07-23T00:53:46.158Z,0
2017-07-23T00:54:45.632Z,0
2017-07-23T00:55:45.806Z,0
2017-07-23T00:56:45.789Z,0
2017-07-23T00:57:45.873Z,0
2017-07-23T00:58:45.780Z,0
2017-07-23T00:59:45.738Z,0
2017-07-23T01:00:45.440Z,0
2017-07-23T01:01:45.772Z,0
2017-07-23T01:02:45.705Z,0
2017-07-23T01:03:45.394Z,0
2017-07-23T01:04:45.698Z,0
2017-07-23T01:05:45.659Z,0
2017-07-23T01:06:45.730Z,0
2017-07-23T01:07:45.949Z,0
2017-07-23T01:08:45.649Z,0
2017-07-23T01:09:45.643Z,0
2017-07-23T01:10:46.010Z,0
2017-07-23T01:11:45.890Z,0
2017-07-23T01:12:45.648Z,0
2017-07-23T01:13:45.581Z,0
2017-07-23T01:14:45.238Z,0
2017-07-23T01:15:45.218Z,0
2017-07-23T01:16:45.226Z,0
2017-07-23T01:17:45.841Z,0
2017-07-23T01:18:45.200Z,0
2017-07-23T01:19:45.566Z,0
2017-07-23T01:20:45.810Z,0
2017-07-23T01:21:45.492Z,0
2017-07-23T01:22:45.144Z,0
2017-07-23T01:23:45.751Z,0
2017-07-23T01:24:45.818Z,0
2017-07-23T01:25:45.721Z,0
2017-07-23T01:26:45.700Z,0
2017-07-23T01:27:45.709Z,0
2017-07-23T01:28:45.672Z,0
2017-07-23T01:29:45.670Z,0
2017-07-23T01:30:45.633Z,0
2017-07-23T01:31:45.086Z,0
2017-07-23T01:32:45.610Z,0
2017-07-23T01:33:44.988Z,0
2017-07-23T01:34:45.278Z,0
2017-07-23T01:35:45.280Z,0
2017-07-23T01:36:45.561Z,0
2017-07-23T01:37:45.580Z,0
2017-07-23T01:38:45.563Z,0
2017-07-23T01:39:45.526Z,0
2017-07-23T01:40:45.119Z,0
2017-07-23T01:41:45.300Z,0
2017-07-23T01:42:45.161Z,0
2017-07-23T01:43:45.180Z,0
2017-07-23T01:44:45.441Z,0
2017-07-23T01:45:45.130Z,0
2017-07-23T01:46:45.420Z,0
2017-07-23T01:47:45.101Z,0
2017-07-23T01:48:45.409Z,0
2017-07-23T01:49:45.398Z,0
2017-07-23T01:50:45.377Z,0
2017-07-23T01:51:44.736Z,0
2017-07-23T01:52:45.031Z,0
2017-07-23T01:53:45.019Z,0
2017-07-23T01:54:45.010Z,0
2017-07-23T01:55:45.295Z,0
2017-07-23T01:56:45.290Z,0
2017-07-23T01:57:45.270Z,0
2017-07-23T01:58:45.252Z,0
2017-07-23T01:59:45.284Z,0
2017-07-23T02:00:44.939Z,0
2017-07-23T02:01:44.610Z,0
2017-07-23T02:02:45.219Z,0
2017-07-23T02:03:44.630Z,0
2017-07-23T02:04:44.560Z,0
2017-07-23T02:05:45.168Z,0
2017-07-23T02:06:45.140Z,0
2017-07-23T02:07:44.870Z,0
2017-07-23T02:08:45.123Z,0
2017-07-23T02:09:44.825Z,0
2017-07-23T02:10:44.789Z,0
2017-07-23T02:11:44.791Z,0
2017-07-23T02:12:44.851Z,0
2017-07-23T02:13:44.809Z,0
2017-07-23T02:14:44.426Z,0
2017-07-23T02:15:44.397Z,0
2017-07-23T02:16:44.695Z,0
2017-07-23T02:17:44.369Z,0
2017-07-23T02:18:44.379Z,0
2017-07-23T02:19:44.663Z,0
2017-07-23T02:20:44.350Z,0
2017-07-23T02:21:45.005Z,0
2017-07-23T02:22:44.697Z,0
2017-07-23T02:23:44.301Z,0
2017-07-23T02:24:44.618Z,0
2017-07-23T02:25:44.281Z,0
2017-07-23T02:26:44.638Z,0
2017-07-23T02:27:44.629Z,0
2017-07-23T02:28:44.859Z,0
2017-07-23T02:29:44.568Z,0
2017-07-23T02:30:44.619Z,0
2017-07-23T02:31:44.486Z,0
2017-07-23T02:32:44.181Z,0
2017-07-23T02:33:44.486Z,0
2017-07-23T02:34:43.839Z,0
2017-07-23T02:35:44.439Z,0
2017-07-23T02:36:44.451Z,0
2017-07-23T02:37:44.080Z,0
2017-07-23T02:38:44.440Z,0
2017-07-23T02:39:44.070Z,0
2017-07-23T02:40:44.390Z,0
2017-07-23T02:41:44.402Z,0
2017-07-23T02:42:44.360Z,0
2017-07-23T02:43:44.071Z,0
2017-07-23T02:44:44.670Z,0
2017-07-23T02:45:43.403Z,0
2017-07-23T02:46:43.981Z,0
2017-07-23T02:47:44.648Z,0
2017-07-23T02:48:44.619Z,0
2017-07-23T02:49:44.603Z,0
2017-07-23T02:50:44.533Z,0
2017-07-23T02:51:44.510Z,0
2017-07-23T02:52:44.209Z,0
2017-07-23T02:53:44.199Z,0
2017-07-23T02:54:44.176Z,0
2017-07-23T02:55:44.479Z,0
2017-07-23T02:56:44.448Z,0
2017-07-23T02:57:44.123Z,0
2017-07-23T02:58:44.141Z,0
2017-07-23T02:59:44.102Z,0
2017-07-23T03:00:44.439Z,0
2017-07-23T03:01:44.379Z,0
2017-07-23T03:02:43.821Z,0
2017-07-23T03:03:43.729Z,0
2017-07-23T03:04:43.430Z,0
2017-07-23T03:05:44.009Z,0
2017-07-23T03:06:43.387Z,0
2017-07-23T03:07:43.991Z,0
2017-07-23T03:08:43.676Z,0
2017-07-23T03:09:43.959Z,0
2017-07-23T03:10:44.273Z,0
2017-07-23T03:11:43.609Z,0
2017-07-23T03:12:44.223Z,0
2017-07-23T03:13:43.919Z,0
2017-07-23T03:14:43.293Z,0
2017-07-23T03:15:43.879Z,0
2017-07-23T03:16:44.153Z,0
2017-07-23T03:17:43.849Z,0
2017-07-23T03:18:43.221Z,0
2017-07-23T03:19:43.839Z,0
2017-07-23T03:20:43.809Z,0
2017-07-23T03:21:43.789Z,0
2017-07-23T03:22:43.457Z,0
2017-07-23T03:23:43.764Z,0
2017-07-23T03:24:43.771Z,0
2017-07-23T03:25:44.061Z,0
2017-07-23T03:26:43.428Z,0
2017-07-23T03:27:43.389Z,0
2017-07-23T03:28:43.388Z,0
2017-07-23T03:29:43.693Z,0
2017-07-23T03:30:43.363Z,0
2017-07-23T03:31:43.353Z,0
2017-07-23T03:32:43.400Z,0
2017-07-23T03:33:43.324Z,0
2017-07-23T03:34:43.400Z,0
2017-07-23T03:35:43.280Z,0
2017-07-23T03:36:43.379Z,0
2017-07-23T03:37:43.261Z,0
2017-07-23T03:38:43.249Z,0
2017-07-23T03:39:43.245Z,0
2017-07-23T03:40:43.222Z,0
2017-07-23T03:41:42.892Z,0
2017-07-23T03:42:43.247Z,0
2017-07-23T03:43:43.833Z,0
2017-07-23T03:44:43.187Z,0
2017-07-23T03:45:43.159Z,0
2017-07-23T03:46:43.194Z,0
2017-07-23T03:47:43.508Z,0
2017-07-23T03:48:43.110Z,0
2017-07-23T03:49:43.399Z,0
2017-07-23T03:50:43.132Z,0
2017-07-23T03:51:43.360Z,0
2017-07-23T03:52:43.658Z,0
2017-07-23T03:53:43.636Z,0
2017-07-23T03:54:43.050Z,0
2017-07-23T03:55:43.317Z,0
2017-07-23T03:56:42.707Z,0
2017-07-23T03:57:43.585Z,0
2017-07-23T03:58:43.341Z,0
2017-07-23T03:59:43.263Z,0
2017-07-23T04:00:43.585Z,0
2017-07-23T04:01:43.257Z,0
2017-07-23T04:02:43.259Z,0
2017-07-23T04:03:43.504Z,0
2017-07-23T04:04:43.207Z,0
2017-07-23T04:05:43.240Z,0
2017-07-23T04:06:43.465Z,0
2017-07-23T04:07:43.530Z,0
2017-07-23T04:08:43.184Z,5
2017-07-23T04:09:43.210Z,5
2017-07-23T04:10:43.117Z,5
2017-07-23T04:11:42.538Z,5
2017-07-23T04:12:43.414Z,5
2017-07-23T04:13:43.079Z,5
2017-07-23T04:14:43.101Z,5
2017-07-23T04:15:43.038Z,5
2017-07-23T04:16:42.088Z,5
2017-07-23T04:17:42.689Z,5
2017-07-23T04:18:43.289Z,5
2017-07-23T04:19:43.280Z,5
2017-07-23T04:20:43.272Z,5
2017-07-23T04:21:42.318Z,5
2017-07-23T04:22:43.241Z,5
2017-07-23T04:23:43.242Z,5
2017-07-23T04:24:43.189Z,5
2017-07-23T04:25:43.191Z,5
2017-07-23T04:26:42.866Z,5
2017-07-23T04:27:42.538Z,5
2017-07-23T04:28:43.149Z,5
2017-07-23T04:29:43.208Z,5
2017-07-23T04:30:42.487Z,5
2017-07-23T04:31:42.479Z,5
2017-07-23T04:32:43.099Z,5
2017-07-23T04:33:42.762Z,5
2017-07-23T04:34:42.770Z,5
2017-07-23T04:35:42.114Z,5
2017-07-23T04:36:42.718Z,5
2017-07-23T04:37:43.066Z,5
2017-07-23T04:38:43.079Z,5
2017-07-23T04:39:42.669Z,5
2017-07-23T04:40:42.330Z,5
2017-07-23T04:41:42.386Z,5
2017-07-23T04:42:42.330Z,5
2017-07-23T04:43:42.926Z,0
2017-07-23T04:44:42.609Z,0
2017-07-23T04:45:42.580Z,0
2017-07-23T04:46:42.265Z,0
2017-07-23T04:47:42.597Z,0
2017-07-23T04:48:42.860Z,0
2017-07-23T04:49:42.838Z,0
2017-07-23T04:50:42.269Z,5
2017-07-23T04:51:42.845Z,5
2017-07-23T04:52:42.486Z,5
2017-07-23T04:53:42.797Z,5
2017-07-23T04:54:42.769Z,5
2017-07-23T04:55:41.832Z,10
2017-07-23T04:56:42.111Z,10
2017-07-23T04:57:42.539Z,10
2017-07-23T04:58:42.710Z,10
2017-07-23T04:59:42.398Z,10
2017-07-23T05:00:42.367Z,10
2017-07-23T05:01:42.071Z,10
2017-07-23T05:02:42.027Z,10
2017-07-23T05:03:42.629Z,10
2017-07-23T05:04:42.307Z,10
2017-07-23T05:05:42.388Z,10
2017-07-23T05:06:41.974Z,10
2017-07-23T05:07:42.327Z,5
2017-07-23T05:08:41.635Z,5
2017-07-23T05:09:41.939Z,10
2017-07-23T05:10:41.917Z,10
2017-07-23T05:11:41.908Z,10
2017-07-23T05:12:42.263Z,15
2017-07-23T05:13:41.876Z,15
2017-07-23T05:14:42.169Z,15
2017-07-23T05:15:41.843Z,15
2017-07-23T05:16:42.466Z,20
2017-07-23T05:17:42.412Z,20
2017-07-23T05:18:42.129Z,20
2017-07-23T05:19:41.472Z,25
2017-07-23T05:20:42.087Z,25
2017-07-23T05:21:42.087Z,30
2017-07-23T05:22:42.089Z,30
2017-07-23T05:23:42.048Z,35
2017-07-23T05:24:42.065Z,35
2017-07-23T05:25:42.309Z,40
2017-07-23T05:26:42.425Z,40
2017-07-23T05:27:41.682Z,45
2017-07-23T05:28:41.975Z,45
2017-07-23T05:29:42.251Z,50
2017-07-23T05:30:41.923Z,60
2017-07-23T05:31:41.979Z,65
2017-07-23T05:32:41.607Z,70
2017-07-23T05:33:41.403Z,75
2017-07-23T05:34:41.876Z,75
2017-07-23T05:35:41.862Z,75
2017-07-23T05:36:42.229Z,75
2017-07-23T05:37:41.203Z,75
2017-07-23T05:38:42.125Z,80
2017-07-23T05:39:41.525Z,80
2017-07-23T05:40:42.100Z,85
2017-07-23T05:41:41.474Z,85
2017-07-23T05:42:41.772Z,90
2017-07-23T05:43:42.178Z,90
2017-07-23T05:44:41.708Z,90
2017-07-23T05:45:41.728Z,95
2017-07-23T05:46:42.004Z,85
2017-07-23T05:47:41.693Z,85
2017-07-23T05:48:41.350Z,80
2017-07-23T05:49:42.146Z,80
2017-07-23T05:50:41.032Z,95
2017-07-23T05:51:41.633Z,80
2017-07-23T05:52:42.009Z,85
2017-07-23T05:53:41.039Z,90
2017-07-23T05:54:41.900Z,95
2017-07-23T05:55:41.626Z,95
2017-07-23T05:56:41.885Z,95
2017-07-23T05:57:41.865Z,90
2017-07-23T05:58:41.238Z,80
2017-07-23T05:59:41.818Z,90
2017-07-23T06:00:40.877Z,95
2017-07-23T06:01:41.221Z,100
2017-07-23T06:02:41.160Z,90
2017-07-23T06:03:41.460Z,105
2017-07-23T06:04:41.765Z,105
2017-07-23T06:05:41.143Z,100
2017-07-23T06:06:41.128Z,105
2017-07-23T06:07:41.087Z,110
2017-07-23T06:08:40.781Z,115
2017-07-23T06:09:41.066Z,120
2017-07-23T06:10:41.344Z,120
2017-07-23T06:11:41.641Z,125
2017-07-23T06:12:41.088Z,120
2017-07-23T06:13:41.017Z,120
2017-07-23T06:14:41.300Z,125
2017-07-23T06:15:41.267Z,120
2017-07-23T06:16:40.968Z,115
2017-07-23T06:17:41.242Z,120
2017-07-23T06:18:40.926Z,120
2017-07-23T06:19:40.917Z,110
2017-07-23T06:20:41.208Z,110
2017-07-23T06:21:41.492Z,110
2017-07-23T06:22:41.516Z,115
2017-07-23T06:23:41.462Z,115
2017-07-23T06:24:41.468Z,120
2017-07-23T06:25:41.130Z,115
2017-07-23T06:26:40.854Z,120
2017-07-23T06:27:40.799Z,125
2017-07-23T06:28:41.100Z,135
2017-07-23T06:29:41.404Z,140
2017-07-23T06:30:40.876Z,145
2017-07-23T06:31:40.749Z,135
2017-07-23T06:32:40.872Z,125
2017-07-23T06:33:40.781Z,115
2017-07-23T06:34:41.123Z,105
2017-07-23T06:35:41.109Z,105
2017-07-23T06:36:41.274Z,105
2017-07-23T06:37:41.099Z,115
2017-07-23T06:38:40.655Z,115
2017-07-23T06:39:40.941Z,115
2017-07-23T06:40:40.947Z,115
2017-07-23T06:41:40.717Z,115
2017-07-23T06:42:40.944Z,115
2017-07-23T06:43:40.608Z,115
2017-07-23T06:44:40.938Z,115
2017-07-23T06:45:40.539Z,115
2017-07-23T06:46:40.572Z,115
2017-07-23T06:47:40.837Z,120
2017-07-23T06:48:40.810Z,125
2017-07-23T06:49:40.817Z,125
2017-07-23T06:50:40.888Z,120
2017-07-23T06:51:40.509Z,120
2017-07-23T06:52:41.047Z,120
2017-07-23T06:53:41.039Z,125
2017-07-23T06:54:41.047Z,125
2017-07-23T06:55:41.008Z,125
2017-07-23T06:56:40.999Z,125
2017-07-23T06:57:40.979Z,125
2017-07-23T06:58:40.352Z,125
2017-07-23T06:59:40.662Z,125
2017-07-23T07:00:40.949Z,125
2017-07-23T07:01:40.643Z,125
2017-07-23T07:02:41.043Z,125
2017-07-23T07:03:40.898Z,125
2017-07-23T07:04:40.899Z,125
2017-07-23T07:05:40.890Z,130
2017-07-23T07:06:40.885Z,130
2017-07-23T07:07:40.670Z,140
2017-07-23T07:08:40.830Z,150
2017-07-23T07:09:40.921Z,145
2017-07-23T07:10:40.831Z,145
2017-07-23T07:11:40.845Z,150
2017-07-23T07:12:40.848Z,150
2017-07-23T07:13:40.497Z,155
2017-07-23T07:14:40.448Z,160
2017-07-23T07:15:40.742Z,175
2017-07-23T07:16:40.095Z,185
2017-07-23T07:17:40.406Z,150
2017-07-23T07:18:40.691Z,170
2017-07-23T07:19:40.366Z,185
2017-07-23T07:20:40.372Z,175
2017-07-23T07:21:40.328Z,175
2017-07-23T07:22:40.645Z,175
2017-07-23T07:23:40.688Z,180
2017-07-23T07:24:39.988Z,180
2017-07-23T07:25:40.294Z,180
2017-07-23T07:26:40.298Z,195
2017-07-23T07:27:40.650Z,205
2017-07-23T07:28:40.267Z,220
2017-07-23T07:29:40.537Z,235
2017-07-23T07:30:40.618Z,245
2017-07-23T07:31:40.526Z,255
2017-07-23T07:32:39.662Z,265
2017-07-23T07:33:40.528Z,265
2017-07-23T07:34:40.495Z,260
2017-07-23T07:35:40.458Z,260
2017-07-23T07:36:40.521Z,265
2017-07-23T07:37:40.428Z,265
2017-07-23T07:38:40.120Z,250
2017-07-23T07:39:40.402Z,260
2017-07-23T07:40:40.389Z,245
2017-07-23T07:41:40.352Z,220
2017-07-23T07:42:40.046Z,225
2017-07-23T07:43:40.338Z,230
2017-07-23T07:44:39.739Z,240
2017-07-23T07:45:40.350Z,255
2017-07-23T07:46:40.329Z,245
2017-07-23T07:47:40.311Z,270
2017-07-23T07:48:39.727Z,265
2017-07-23T07:49:39.958Z,245
2017-07-23T07:50:39.974Z,275
2017-07-23T07:51:40.258Z,285
2017-07-23T07:52:39.314Z,295
2017-07-23T07:53:39.898Z,290
2017-07-23T07:54:40.227Z,265
2017-07-23T07:55:39.588Z,255
2017-07-23T07:56:39.868Z,245
2017-07-23T07:57:39.540Z,240
2017-07-23T07:58:39.858Z,215
2017-07-23T07:59:39.849Z,210
2017-07-23T08:00:39.941Z,190
2017-07-23T08:01:40.128Z,180
2017-07-23T08:02:40.113Z,195
2017-07-23T08:03:39.884Z,190
2017-07-23T08:04:40.087Z,205
2017-07-23T08:05:40.057Z,230
2017-07-23T08:06:39.733Z,250
2017-07-23T08:07:39.735Z,250
2017-07-23T08:08:39.416Z,230
2017-07-23T08:09:39.726Z,230
2017-07-23T08:10:40.038Z,240
2017-07-23T08:11:39.409Z,245
2017-07-23T08:12:39.669Z,260
2017-07-23T08:13:39.669Z,250
2017-07-23T08:14:39.937Z,265
2017-07-23T08:15:39.957Z,275
2017-07-23T08:16:39.937Z,265
2017-07-23T08:17:39.611Z,255
2017-07-23T08:18:39.929Z,270
2017-07-23T08:19:39.288Z,280
2017-07-23T08:20:39.882Z,285
2017-07-23T08:21:39.885Z,280
2017-07-23T08:22:39.859Z,290
2017-07-23T08:23:39.567Z,255
2017-07-23T08:24:39.962Z,255
2017-07-23T08:25:39.220Z,200
2017-07-23T08:26:39.516Z,175
2017-07-23T08:27:39.529Z,235
2017-07-23T08:28:39.804Z,270
2017-07-23T08:29:39.476Z,275
2017-07-23T08:30:39.850Z,265
2017-07-23T08:31:39.454Z,275
2017-07-23T08:32:39.120Z,265
2017-07-23T08:33:39.417Z,265
2017-07-23T08:34:39.169Z,280
2017-07-23T08:35:39.793Z,280
2017-07-23T08:36:39.417Z,275
2017-07-23T08:37:39.713Z,280
2017-07-23T08:38:39.689Z,285
2017-07-23T08:39:39.669Z,290
2017-07-23T08:40:39.439Z,330
2017-07-23T08:41:39.017Z,440
2017-07-23T08:42:39.620Z,605
2017-07-23T08:43:39.621Z,790
2017-07-23T08:44:38.990Z,980
2017-07-23T08:45:39.266Z,1130
2017-07-23T08:46:38.979Z,1265
2017-07-23T08:47:39.258Z,1365
2017-07-23T08:48:38.938Z,1435
2017-07-23T08:49:38.938Z,1430
2017-07-23T08:50:39.240Z,1370
2017-07-23T08:51:39.237Z,1365
2017-07-23T08:52:39.542Z,1445
2017-07-23T08:53:39.571Z,1405
2017-07-23T08:54:39.524Z,335
2017-07-23T08:55:39.221Z,1405
2017-07-23T08:56:39.499Z,1440
2017-07-23T08:57:39.521Z,395
2017-07-23T08:58:39.511Z,280
2017-07-23T08:59:38.870Z,215
2017-07-23T09:00:39.484Z,205
2017-07-23T09:01:39.144Z,200
2017-07-23T09:02:39.132Z,220
2017-07-23T09:03:39.442Z,200
2017-07-23T09:04:39.434Z,190
2017-07-23T09:05:39.100Z,625
2017-07-23T09:06:39.109Z,1265
2017-07-23T09:07:38.874Z,265
2017-07-23T09:08:39.400Z,355
2017-07-23T09:09:39.382Z,1285
2017-07-23T09:10:38.859Z,360
2017-07-23T09:11:39.358Z,650
2017-07-23T09:12:39.141Z,400
2017-07-23T09:13:38.732Z,1295
2017-07-23T09:14:39.367Z,330
2017-07-23T09:15:38.699Z,465
2017-07-23T09:16:39.021Z,225
2017-07-23T09:17:39.098Z,250
2017-07-23T09:18:38.682Z,255
2017-07-23T09:19:38.778Z,220
2017-07-23T09:20:38.981Z,180
2017-07-23T09:21:39.380Z,155
2017-07-23T09:22:38.989Z,130
2017-07-23T09:23:39.265Z,130
2017-07-23T09:24:38.939Z,130
2017-07-23T09:25:38.622Z,165
2017-07-23T09:26:38.937Z,1135
2017-07-23T09:27:39.221Z,1255
2017-07-23T09:28:38.925Z,215
2017-07-23T09:29:38.897Z,190
2017-07-23T09:30:38.669Z,175
2017-07-23T09:31:38.902Z,205
2017-07-23T09:32:39.183Z,225
2017-07-23T09:33:38.655Z,175
2017-07-23T09:34:38.849Z,145
2017-07-23T09:35:39.149Z,100
2017-07-23T09:36:38.513Z,75
2017-07-23T09:37:39.147Z,65
2017-07-23T09:38:38.804Z,60
2017-07-23T09:39:38.791Z,65
2017-07-23T09:40:38.804Z,70
2017-07-23T09:41:39.072Z,75
2017-07-23T09:42:38.471Z,75
2017-07-23T09:43:39.071Z,75
2017-07-23T09:44:38.432Z,80
2017-07-23T09:45:38.519Z,85
2017-07-23T09:46:39.032Z,90
2017-07-23T09:47:39.046Z,95
2017-07-23T09:48:38.371Z,105
2017-07-23T09:49:38.980Z,120
2017-07-23T09:50:38.979Z,135
2017-07-23T09:51:38.799Z,150
2017-07-23T09:52:38.687Z,165
2017-07-23T09:53:38.621Z,175
2017-07-23T09:54:38.636Z,160
2017-07-23T09:55:38.587Z,145
2017-07-23T09:56:38.604Z,130
2017-07-23T09:57:38.282Z,110
2017-07-23T09:58:38.590Z,95
2017-07-23T09:59:38.867Z,85
2017-07-23T10:00:38.869Z,80
2017-07-23T10:01:38.565Z,80
2017-07-23T10:02:38.525Z,85
2017-07-23T10:03:38.551Z,95
2017-07-23T10:04:38.519Z,110
2017-07-23T10:05:38.483Z,150
2017-07-23T10:06:38.496Z,215
2017-07-23T10:07:38.768Z,1055
2017-07-23T10:08:38.457Z,1035
2017-07-23T10:09:38.745Z,970
2017-07-23T10:10:38.463Z,965
2017-07-23T10:11:38.710Z,945
2017-07-23T10:12:38.721Z,955
2017-07-23T10:13:38.421Z,205
2017-07-23T10:14:38.690Z,190
2017-07-23T10:15:38.698Z,160
2017-07-23T10:16:38.779Z,135
2017-07-23T10:17:38.694Z,115
2017-07-23T10:18:38.731Z,100
2017-07-23T10:19:38.685Z,100
2017-07-23T10:20:38.699Z,105
2017-07-23T10:21:38.706Z,110
2017-07-23T10:22:38.621Z,115
2017-07-23T10:23:38.632Z,105
2017-07-23T10:24:38.340Z,105
2017-07-23T10:25:38.598Z,105
2017-07-23T10:26:38.628Z,95
2017-07-23T10:27:38.608Z,95
2017-07-23T10:28:38.647Z,95
2017-07-23T10:29:38.253Z,90
2017-07-23T10:30:38.515Z,75
2017-07-23T10:31:38.570Z,55
2017-07-23T10:32:38.200Z,40
2017-07-23T10:33:38.244Z,40
2017-07-23T10:34:38.500Z,40
2017-07-23T10:35:38.569Z,45
2017-07-23T10:36:38.460Z,55
2017-07-23T10:37:38.496Z,60
2017-07-23T10:38:38.464Z,70
2017-07-23T10:39:38.429Z,80
2017-07-23T10:40:38.391Z,90
2017-07-23T10:41:37.767Z,95
2017-07-23T10:42:38.389Z,105
2017-07-23T10:43:38.451Z,115
2017-07-23T10:44:38.382Z,120
2017-07-23T10:45:38.342Z,130
2017-07-23T10:46:38.009Z,135
2017-07-23T10:47:37.995Z,140
2017-07-23T10:48:37.996Z,140
2017-07-23T10:49:37.670Z,135
2017-07-23T10:50:37.981Z,130
2017-07-23T10:51:37.993Z,110
2017-07-23T10:52:38.278Z,95
2017-07-23T10:53:37.928Z,90
2017-07-23T10:54:38.241Z,85
2017-07-23T10:55:38.221Z,75
2017-07-23T10:56:38.207Z,75
2017-07-23T10:57:37.893Z,85
2017-07-23T10:58:38.166Z,100
2017-07-23T10:59:38.211Z,120
2017-07-23T11:00:38.169Z,125
2017-07-23T11:01:37.542Z,140
2017-07-23T11:02:38.139Z,155
2017-07-23T11:03:38.120Z,175
2017-07-23T11:04:38.106Z,315
2017-07-23T11:05:38.109Z,335
2017-07-23T11:06:37.811Z,335
2017-07-23T11:07:38.070Z,325
2017-07-23T11:08:37.745Z,310
2017-07-23T11:09:38.066Z,315
2017-07-23T11:10:38.033Z,310
2017-07-23T11:11:37.731Z,330
2017-07-23T11:12:37.998Z,320
2017-07-23T11:13:37.988Z,185
2017-07-23T11:14:37.991Z,165
2017-07-23T11:15:38.091Z,160
2017-07-23T11:16:37.973Z,165
2017-07-23T11:17:38.050Z,170
2017-07-23T11:18:37.622Z,160
2017-07-23T11:19:37.316Z,150
2017-07-23T11:20:37.619Z,150
2017-07-23T11:21:37.910Z,145
2017-07-23T11:22:37.282Z,150
2017-07-23T11:23:37.606Z,155
2017-07-23T11:24:37.581Z,165
2017-07-23T11:25:37.958Z,170
2017-07-23T11:26:37.529Z,175
2017-07-23T11:27:37.233Z,180
2017-07-23T11:28:37.220Z,190
2017-07-23T11:29:37.842Z,195
2017-07-23T11:30:37.481Z,195
2017-07-23T11:31:37.504Z,200
2017-07-23T11:32:37.486Z,195
2017-07-23T11:33:37.907Z,195
2017-07-23T11:34:37.787Z,220
2017-07-23T11:35:37.449Z,335
2017-07-23T11:36:37.417Z,265
2017-07-23T11:37:37.788Z,315
2017-07-23T11:38:37.749Z,230
2017-07-23T11:39:37.749Z,260
2017-07-23T11:40:37.682Z,295
2017-07-23T11:41:37.048Z,280
2017-07-23T11:42:37.719Z,235
2017-07-23T11:43:37.691Z,210
2017-07-23T11:44:37.627Z,240
2017-07-23T11:45:37.334Z,225
2017-07-23T11:46:37.342Z,200
2017-07-23T11:47:37.290Z,205
2017-07-23T11:48:37.440Z,220
2017-07-23T11:49:37.567Z,225
2017-07-23T11:50:37.592Z,240
2017-07-23T11:51:37.262Z,255
2017-07-23T11:52:37.546Z,200
2017-07-23T11:53:37.531Z,275
2017-07-23T11:54:37.230Z,245
2017-07-23T11:55:37.503Z,270
2017-07-23T11:56:37.486Z,220
2017-07-23T11:57:37.504Z,205
2017-07-23T11:58:37.482Z,205
2017-07-23T11:59:37.460Z,205
2017-07-23T12:00:37.463Z,215
2017-07-23T12:01:37.138Z,235
2017-07-23T12:02:37.443Z,265
2017-07-23T12:03:37.420Z,245
2017-07-23T12:04:37.399Z,235
2017-07-23T12:05:37.410Z,225
2017-07-23T12:06:37.382Z,220
2017-07-23T12:07:37.378Z,225
2017-07-23T12:08:37.372Z,230
2017-07-23T12:09:37.048Z,240
2017-07-23T12:10:37.350Z,270
2017-07-23T12:11:36.702Z,225
2017-07-23T12:12:37.330Z,250
2017-07-23T12:13:37.016Z,210
2017-07-23T12:14:37.018Z,300
2017-07-23T12:15:37.281Z,250
2017-07-23T12:16:37.424Z,310
2017-07-23T12:17:37.397Z,320
2017-07-23T12:18:36.984Z,280
2017-07-23T12:19:36.642Z,265
2017-07-23T12:20:36.616Z,295
2017-07-23T12:21:37.210Z,290
2017-07-23T12:22:36.932Z,310
2017-07-23T12:23:37.232Z,205
2017-07-23T12:24:36.890Z,310
2017-07-23T12:25:36.579Z,295
2017-07-23T12:26:37.160Z,280
2017-07-23T12:27:37.250Z,280
2017-07-23T12:28:37.227Z,170
2017-07-23T12:29:36.862Z,180
2017-07-23T12:30:37.253Z,275
2017-07-23T12:31:36.493Z,165
2017-07-23T12:32:37.150Z,200
2017-07-23T12:33:36.496Z,275
2017-07-23T12:34:37.119Z,290
2017-07-23T12:35:36.767Z,280
2017-07-23T12:36:36.144Z,305
2017-07-23T12:37:36.732Z,270
2017-07-23T12:38:36.739Z,270
2017-07-23T12:39:37.092Z,240
2017-07-23T12:40:37.051Z,245
2017-07-23T12:41:36.713Z,240
2017-07-23T12:42:36.719Z,305
2017-07-23T12:43:36.668Z,310
2017-07-23T12:44:36.668Z,200
2017-07-23T12:45:36.668Z,310
2017-07-23T12:46:36.046Z,290
2017-07-23T12:47:36.990Z,275
2017-07-23T12:48:36.626Z,270
2017-07-23T12:49:36.937Z,270
2017-07-23T12:50:36.672Z,275
2017-07-23T12:51:36.612Z,265
2017-07-23T12:52:36.883Z,265
2017-07-23T12:53:36.595Z,270
2017-07-23T12:54:36.880Z,265
2017-07-23T12:55:36.549Z,245
2017-07-23T12:56:36.558Z,260
2017-07-23T12:57:36.879Z,260
2017-07-23T12:58:36.849Z,265
2017-07-23T12:59:36.517Z,270
2017-07-23T13:00:36.536Z,270
2017-07-23T13:01:36.512Z,265
2017-07-23T13:02:36.480Z,275
2017-07-23T13:03:36.788Z,280
2017-07-23T13:04:36.467Z,275
2017-07-23T13:05:36.788Z,275
2017-07-23T13:06:36.767Z,255
2017-07-23T13:07:36.146Z,215
2017-07-23T13:08:36.429Z,245
2017-07-23T13:09:36.508Z,230
2017-07-23T13:10:36.417Z,215
2017-07-23T13:11:36.485Z,180
2017-07-23T13:12:36.088Z,150
2017-07-23T13:13:36.071Z,145
2017-07-23T13:14:36.362Z,145
2017-07-23T13:15:36.364Z,155
2017-07-23T13:16:36.348Z,165
2017-07-23T13:17:36.049Z,160
2017-07-23T13:18:36.317Z,160
2017-07-23T13:19:36.294Z,170
2017-07-23T13:20:36.299Z,175
2017-07-23T13:21:35.998Z,185
2017-07-23T13:22:36.304Z,245
2017-07-23T13:23:36.585Z,180
2017-07-23T13:24:36.586Z,190
2017-07-23T13:25:36.261Z,235
2017-07-23T13:26:36.348Z,230
2017-07-23T13:27:36.536Z,265
2017-07-23T13:28:36.323Z,200
2017-07-23T13:29:35.993Z,265
2017-07-23T13:30:36.590Z,275
2017-07-23T13:31:36.187Z,280
2017-07-23T13:32:36.200Z,270
2017-07-23T13:33:36.192Z,270
2017-07-23T13:34:36.188Z,255
2017-07-23T13:35:35.895Z,260
2017-07-23T13:36:36.498Z,250
2017-07-23T13:37:36.459Z,210
2017-07-23T13:38:36.489Z,200
2017-07-23T13:39:36.413Z,205
2017-07-23T13:40:35.804Z,210
2017-07-23T13:41:36.074Z,255
2017-07-23T13:42:36.097Z,205
2017-07-23T13:43:36.377Z,205
2017-07-23T13:44:35.769Z,200
2017-07-23T13:45:36.053Z,195
2017-07-23T13:46:36.337Z,195
2017-07-23T13:47:36.327Z,275
2017-07-23T13:48:36.023Z,270
2017-07-23T13:49:36.050Z,255
2017-07-23T13:50:36.006Z,255
2017-07-23T13:51:36.298Z,260
2017-07-23T13:52:35.987Z,265
2017-07-23T13:53:36.272Z,265
2017-07-23T13:54:35.965Z,245
2017-07-23T13:55:36.267Z,250
2017-07-23T13:56:36.258Z,245
2017-07-23T13:57:36.264Z,230
2017-07-23T13:58:36.242Z,170
2017-07-23T13:59:36.226Z,185
2017-07-23T14:00:36.212Z,175
2017-07-23T14:01:36.196Z,185
2017-07-23T14:02:36.205Z,165
2017-07-23T14:03:35.866Z,170
2017-07-23T14:04:35.853Z,185
2017-07-23T14:05:35.850Z,215
2017-07-23T14:06:36.153Z,180
2017-07-23T14:07:35.559Z,230
2017-07-23T14:08:36.233Z,215
2017-07-23T14:09:36.136Z,265